Time;durP1;ratioP1;P1;durP2;ratioP2;P2;SDS_P1;SDS_P2;PMS_P1;PMS_P2;Temp;Humidity;BMP_temperature;BMP_pressure;BME280_temperature;BME280_humidity;BME280_pressure;Samples;Min_cycle;Max_cycle;Signal;HPM_P1;HPM_P2
2023/11/12 00:01:14;;;;;;;7.17;2.70;;;;;3.90;96016.00;;;;5094610;28;20434;-83
2023/11/12 00:04:04;;;;;;;9.00;3.27;;;;;3.90;96023.00;;;;5107816;28;20421;-83
2023/11/12 00:06:53;;;;;;;8.70;3.20;;;;;4.10;96022.00;;;;5107245;28;20427;-82
2023/11/12 00:09:42;;;;;;;13.93;4.80;;;;;3.50;96013.00;;;;5100288;28;20418;-83
2023/11/12 00:12:31;;;;;;;14.03;4.60;;;;;3.70;96013.00;;;;5105029;28;20455;-81
2023/11/12 00:15:22;;;;;;;12.17;3.97;;;;;3.40;96021.00;;;;5106063;28;20420;-81
2023/11/12 00:18:11;;;;;;;10.80;3.47;;;;;3.00;96009.00;;;;5099092;28;20433;-82
2023/11/12 00:21:00;;;;;;;12.37;4.00;;;;;2.70;96011.00;;;;5103505;28;20463;-81
2023/11/12 00:23:49;;;;;;;17.70;5.57;;;;;3.10;96018.00;;;;5102495;27;20446;-82
2023/11/12 00:26:38;;;;;;;15.13;5.00;;;;;3.30;96023.00;;;;5106104;28;20417;-83
2023/11/12 00:29:27;;;;;;;15.70;5.07;;;;;3.00;96011.00;;;;5094057;28;20420;-80
2023/11/12 00:32:17;;;;;;;9.90;3.47;;;;;2.70;96014.00;;;;5099405;28;20960;-82
2023/11/12 00:35:07;;;;;;;8.13;2.97;;;;;3.00;96016.00;;;;5099675;28;20417;-81
2023/11/12 00:37:56;;;;;;;8.80;3.17;;;;;3.30;96018.00;;;;5100977;28;20441;-81
2023/11/12 00:40:46;;;;;;;13.63;4.70;;;;;3.20;96018.00;;;;5097633;27;20472;-81
2023/11/12 00:43:35;;;;;;;14.13;4.87;;;;;3.20;96023.00;;;;5104115;28;20416;-81
2023/11/12 00:46:25;;;;;;;7.23;2.67;;;;;3.00;96022.00;;;;5099024;28;20437;-81
2023/11/12 00:49:16;;;;;;;10.60;3.80;;;;;2.80;96025.00;;;;5112421;28;20905;-82
2023/11/12 00:52:06;;;;;;;8.90;3.30;;;;;2.70;96019.00;;;;5093980;28;20446;-80
2023/11/12 00:54:56;;;;;;;12.50;4.27;;;;;2.70;96017.00;;;;5097491;28;20425;-81
2023/11/12 00:57:45;;;;;;;12.40;4.53;;;;;3.00;96014.00;;;;5105104;28;20435;-80
2023/11/12 01:00:34;;;;;;;10.30;3.80;;;;;3.20;96017.00;;;;5094257;28;20469;-82
2023/11/12 01:03:28;;;;;;;8.77;3.27;;;;;3.30;96022.00;;;;5101496;28;20432;-80
2023/11/12 01:06:18;;;;;;;8.10;2.87;;;;;2.90;96017.00;;;;5103562;28;20456;-80
2023/11/12 01:09:08;;;;;;;8.00;2.83;;;;;2.90;96013.00;;;;5099826;28;20421;-79
2023/11/12 01:11:57;;;;;;;9.87;3.57;;;;;3.00;96022.00;;;;5099682;28;20929;-80
2023/11/12 01:14:46;;;;;;;9.87;3.43;;;;;3.00;96018.00;;;;5100120;28;20432;-81
2023/11/12 01:17:35;;;;;;;17.70;5.90;;;;;2.70;96016.00;;;;5106090;27;20989;-79
2023/11/12 01:20:24;;;;;;;5.87;2.17;;;;;2.60;96017.00;;;;5099804;28;20476;-81
2023/11/12 01:23:16;;;;;;;7.93;2.87;;;;;2.60;96022.00;;;;5097611;28;20441;-78
2023/11/12 01:26:06;;;;;;;8.80;3.13;;;;;2.80;96033.00;;;;5102687;28;20420;-79
2023/11/12 01:28:55;;;;;;;7.33;2.73;;;;;2.50;96027.00;;;;5098535;28;20428;-80
2023/11/12 01:31:45;;;;;;;9.63;3.53;;;;;1.80;96023.00;;;;5099255;28;20444;-82
2023/11/12 01:34:34;;;;;;;11.83;4.20;;;;;2.00;96019.00;;;;5093228;28;20414;-80
2023/11/12 01:37:23;;;;;;;9.73;3.37;;;;;2.30;96019.00;;;;5100175;28;20433;-80
2023/11/12 01:40:16;;;;;;;8.77;3.10;;;;;2.70;96025.00;;;;5097720;28;20453;-79
2023/11/12 01:43:05;;;;;;;4.20;1.70;;;;;2.40;96026.00;;;;5100410;28;20471;-82
2023/11/12 01:45:54;;;;;;;7.30;2.90;;;;;2.50;96013.00;;;;5099837;27;20423;-81
2023/11/12 01:48:43;;;;;;;9.93;3.67;;;;;2.60;96011.00;;;;5099955;28;20436;-79
2023/11/12 01:51:33;;;;;;;7.23;2.67;;;;;2.70;96001.00;;;;5098723;28;20445;-80
2023/11/12 01:54:22;;;;;;;6.70;2.43;;;;;2.10;96023.00;;;;5093811;28;20428;-80
2023/11/12 01:57:13;;;;;;;6.80;2.57;;;;;2.50;96002.00;;;;5094202;28;20421;-81
2023/11/12 02:00:10;;;;;;;4.00;1.60;;;;;2.30;96003.00;;;;5094972;28;20455;-79
2023/11/12 02:02:59;;;;;;;4.40;1.67;;;;;2.50;96007.00;;;;5102382;28;20445;-80
2023/11/12 02:05:48;;;;;;;11.57;4.07;;;;;1.80;96000.00;;;;5099344;28;20428;-80
2023/11/12 02:08:37;;;;;;;11.07;4.03;;;;;1.70;96000.00;;;;5099239;28;20429;-81
2023/11/12 02:11:27;;;;;;;6.23;2.43;;;;;2.20;96010.00;;;;5101598;28;20436;-80
2023/11/12 02:14:19;;;;;;;6.73;2.43;;;;;2.50;96011.00;;;;5093637;28;20824;-80
2023/11/12 02:17:08;;;;;;;5.23;2.07;;;;;2.20;96012.00;;;;5103630;28;20433;-80
2023/11/12 02:20:04;;;;;;;7.60;2.77;;;;;2.10;96014.00;;;;5096396;28;20418;-80
2023/11/12 02:22:53;;;;;;;5.43;2.13;;;;;2.40;96009.00;;;;5102498;28;20456;-80
2023/11/12 02:25:44;;;;;;;11.20;3.93;;;;;2.30;96021.00;;;;5104876;27;20436;-80
2023/11/12 02:28:33;;;;;;;6.53;2.57;;;;;2.00;96013.00;;;;5103054;28;20436;-80
2023/11/12 02:31:22;;;;;;;6.87;2.53;;;;;2.00;96009.00;;;;5098210;28;20433;-80
2023/11/12 02:34:11;;;;;;;6.67;2.40;;;;;1.60;96007.00;;;;5111686;27;20440;-77
2023/11/12 02:37:00;;;;;;;9.37;3.27;;;;;1.80;96019.00;;;;5123198;28;20453;-79
2023/11/12 02:39:49;;;;;;;7.90;2.90;;;;;2.20;96018.00;;;;5116107;28;20429;-81
2023/11/12 02:42:39;;;;;;;15.80;5.30;;;;;2.10;96024.00;;;;5105680;28;20791;-81
2023/11/12 02:45:28;;;;;;;6.43;2.40;;;;;1.90;96019.00;;;;5108082;28;20424;-81
2023/11/12 02:48:17;;;;;;;6.57;2.43;;;;;1.60;96007.00;;;;5105762;28;20418;-82
2023/11/12 02:51:07;;;;;;;6.80;2.50;;;;;1.90;96020.00;;;;5105622;28;20441;-82
2023/11/12 02:53:56;;;;;;;7.87;2.83;;;;;2.00;96017.00;;;;5106467;27;20409;-81
2023/11/12 02:56:46;;;;;;;11.40;4.00;;;;;1.80;96004.00;;;;5099969;28;20429;-81
2023/11/12 02:59:36;;;;;;;10.70;3.60;;;;;2.00;96007.00;;;;5096276;28;20437;-81
2023/11/12 03:02:25;;;;;;;8.67;3.03;;;;;2.10;96014.00;;;;5098568;28;20491;-80
2023/11/12 03:05:15;;;;;;;7.83;2.67;;;;;2.10;96012.00;;;;5097646;28;20417;-81
2023/11/12 03:08:04;;;;;;;6.17;2.33;;;;;2.30;96007.00;;;;5098231;28;20434;-79
2023/11/12 03:10:54;;;;;;;8.37;2.77;;;;;1.70;95994.00;;;;5094782;28;20428;-80
2023/11/12 03:13:43;;;;;;;11.30;3.77;;;;;1.70;96003.00;;;;5101574;28;20448;-80
2023/11/12 03:16:33;;;;;;;7.70;2.63;;;;;1.90;95998.00;;;;5101968;28;20493;-81
2023/11/12 03:19:23;;;;;;;12.77;4.07;;;;;2.00;96013.00;;;;5100260;28;20436;-82
2023/11/12 03:22:12;;;;;;;5.73;1.97;;;;;2.10;96015.00;;;;5103552;28;20456;-82
2023/11/12 03:25:01;;;;;;;7.13;2.43;;;;;2.10;96016.00;;;;5099826;28;20438;-82
2023/11/12 03:27:50;;;;;;;13.40;4.37;;;;;1.60;95995.00;;;;5102505;28;20417;-82
2023/11/12 03:30:39;;;;;;;15.40;4.83;;;;;1.40;95992.00;;;;5094228;28;20424;-80
2023/11/12 03:33:31;;;;;;;6.40;2.27;;;;;1.60;96002.00;;;;5097792;28;20425;-81
2023/11/12 03:36:20;;;;;;;6.57;2.33;;;;;2.00;96008.00;;;;5107228;28;20473;-82
2023/11/12 03:39:09;;;;;;;6.37;2.27;;;;;1.90;96005.00;;;;5104640;28;21155;-82
2023/11/12 03:41:58;;;;;;;6.10;2.23;;;;;1.90;95991.00;;;;5102847;28;20465;-80
2023/11/12 03:44:49;;;;;;;10.27;3.50;;;;;1.80;96006.00;;;;5100917;28;20443;-82
2023/11/12 03:47:38;;;;;;;18.87;5.93;;;;;1.20;96000.00;;;;5100095;28;20426;-82
2023/11/12 03:50:28;;;;;;;5.77;2.13;;;;;0.80;95999.00;;;;5101792;28;20424;-82
2023/11/12 03:53:17;;;;;;;7.50;2.57;;;;;1.60;95998.00;;;;5103130;28;20425;-82
2023/11/12 03:56:07;;;;;;;8.10;2.83;;;;;1.40;96001.00;;;;5108295;28;20409;-81
2023/11/12 03:58:57;;;;;;;8.03;2.73;;;;;0.90;95999.00;;;;5100946;28;20433;-81
2023/11/12 04:01:46;;;;;;;12.63;4.20;;;;;0.30;95999.00;;;;5102174;28;20523;-80
2023/11/12 04:04:35;;;;;;;7.53;2.63;;;;;1.30;96010.00;;;;5110805;28;20426;-80
2023/11/12 04:07:25;;;;;;;5.23;1.83;;;;;1.50;96015.00;;;;5100369;28;20520;-80
2023/11/12 04:10:15;;;;;;;7.63;2.60;;;;;1.60;96008.00;;;;5102774;28;20417;-79
2023/11/12 04:13:04;;;;;;;8.03;2.83;;;;;1.20;96007.00;;;;5101726;28;20413;-80
2023/11/12 04:15:53;;;;;;;14.00;4.57;;;;;1.50;96010.00;;;;5108149;28;20436;-80
2023/11/12 04:18:43;;;;;;;13.40;4.30;;;;;1.40;96011.00;;;;5107738;28;20936;-80
2023/11/12 04:21:32;;;;;;;8.50;2.73;;;;;1.00;96009.00;;;;5101969;28;20822;-80
2023/11/12 04:24:22;;;;;;;8.43;2.73;;;;;0.30;96007.00;;;;5105150;28;20428;-81
2023/11/12 04:27:12;;;;;;;8.47;2.80;;;;;0.10;95999.00;;;;5099187;28;20456;-85
2023/11/12 04:30:01;;;;;;;8.27;2.90;;;;;0.20;96010.00;;;;5105690;27;20428;-81
2023/11/12 04:32:50;;;;;;;10.97;3.77;;;;;0.20;96011.00;;;;5103107;28;20441;-80
2023/11/12 04:35:39;;;;;;;14.33;4.57;;;;;0.50;96007.00;;;;5099724;28;20506;-79
2023/11/12 04:38:28;;;;;;;6.60;2.13;;;;;0.70;96014.00;;;;5104400;28;20457;-82
2023/11/12 04:41:19;;;;;;;7.60;2.37;;;;;0.60;96006.00;;;;5100162;28;20461;-80
2023/11/12 04:44:08;;;;;;;9.17;2.87;;;;;0.80;96008.00;;;;5097063;28;20425;-81
2023/11/12 04:46:57;;;;;;;8.57;2.77;;;;;1.20;96011.00;;;;5109809;28;20630;-81
2023/11/12 04:49:46;;;;;;;15.50;4.63;;;;;1.20;96017.00;;;;5103040;28;20436;-82
2023/11/12 04:52:34;;;;;;;13.77;4.03;;;;;1.10;96021.00;;;;5109089;27;20447;-80
2023/11/12 04:55:24;;;;;;;9.70;2.97;;;;;1.10;96032.00;;;;5100380;27;20457;-81
2023/11/12 04:58:15;;;;;;;6.63;2.30;;;;;1.20;96034.00;;;;5102142;28;20436;-81
2023/11/12 05:01:04;;;;;;;9.97;3.10;;;;;1.30;96037.00;;;;5101712;28;20448;-82
2023/11/12 05:03:53;;;;;;;14.43;4.43;;;;;1.40;96052.00;;;;5107950;28;21101;-81
2023/11/12 05:06:42;;;;;;;18.43;5.33;;;;;1.30;96045.00;;;;5101102;28;20448;-81
2023/11/12 05:09:31;;;;;;;10.50;3.17;;;;;1.20;96040.00;;;;5105162;28;20421;-81
2023/11/12 05:12:21;;;;;;;7.33;2.37;;;;;0.70;96049.00;;;;5104426;27;20445;-81
2023/11/12 05:15:11;;;;;;;8.27;2.57;;;;;0.60;96040.00;;;;5106882;28;20428;-82
2023/11/12 05:18:05;;;;;;;9.20;2.87;;;;;0.80;96045.00;;;;5102501;28;20446;-82
2023/11/12 05:20:54;;;;;;;6.77;2.27;;;;;0.50;96042.00;;;;5110325;28;20428;-81
2023/11/12 05:23:43;;;;;;;11.23;3.33;;;;;0.10;96039.00;;;;5106077;28;20429;-81
2023/11/12 05:26:32;;;;;;;7.20;2.30;;;;;0.60;96048.00;;;;5106766;28;20430;-80
2023/11/12 05:29:21;;;;;;;17.27;5.00;;;;;1.00;96043.00;;;;5102378;28;20416;-80
2023/11/12 05:32:12;;;;;;;11.77;3.63;;;;;1.10;96053.00;;;;5100347;28;20867;-82
2023/11/12 05:35:01;;;;;;;7.77;2.50;;;;;1.00;96038.00;;;;5099666;27;20437;-82
2023/11/12 05:37:50;;;;;;;15.50;4.57;;;;;1.10;96028.00;;;;5110171;28;20413;-81
2023/11/12 05:40:39;;;;;;;17.50;5.00;;;;;1.30;96032.00;;;;5104722;28;20943;-80
2023/11/12 05:43:28;;;;;;;9.23;2.80;;;;;0.70;96037.00;;;;5111007;28;20465;-82
2023/11/12 05:46:18;;;;;;;9.23;2.87;;;;;-0.20;96020.00;;;;5114435;28;20945;-79
2023/11/12 05:49:08;;;;;;;9.20;2.87;;;;;0.50;96042.00;;;;5102254;28;20428;-80
2023/11/12 05:51:57;;;;;;;7.07;2.33;;;;;0.40;96043.00;;;;5103659;28;20996;-82
2023/11/12 05:54:46;;;;;;;18.63;5.37;;;;;0.30;96041.00;;;;5102999;28;20420;-82
2023/11/12 05:57:35;;;;;;;14.93;4.57;;;;;0.80;96039.00;;;;5104209;28;20440;-80
2023/11/12 06:00:24;;;;;;;6.37;2.13;;;;;1.00;96037.00;;;;5103785;28;20940;-80
2023/11/12 06:03:15;;;;;;;8.83;2.83;;;;;0.70;96041.00;;;;5107015;28;20981;-82
2023/11/12 06:06:06;;;;;;;8.43;2.70;;;;;0.90;96047.00;;;;5100106;28;20458;-79
2023/11/12 06:08:55;;;;;;;8.37;2.80;;;;;1.10;96059.00;;;;5094052;28;20429;-81
2023/11/12 06:11:44;;;;;;;14.27;4.23;;;;;1.00;96053.00;;;;5096360;28;20460;-79
2023/11/12 06:14:35;;;;;;;9.33;3.03;;;;;1.20;96039.00;;;;5110264;28;20944;-82
2023/11/12 06:17:25;;;;;;;7.90;2.57;;;;;0.70;96040.00;;;;5099123;28;20984;-80
2023/11/12 06:20:14;;;;;;;7.30;2.40;;;;;0.40;96037.00;;;;5103749;28;20438;-80
2023/11/12 06:23:06;;;;;;;9.07;2.83;;;;;0.40;96034.00;;;;5100702;28;20471;-82
2023/11/12 06:25:55;;;;;;;11.10;3.40;;;;;0.40;96047.00;;;;5100435;28;20976;-82
2023/11/12 06:28:44;;;;;;;17.93;5.43;;;;;-0.10;96037.00;;;;5102057;28;20432;-79
2023/11/12 06:31:34;;;;;;;10.37;3.23;;;;;0.00;96040.00;;;;5103600;28;20441;-82
2023/11/12 06:34:23;;;;;;;16.30;4.80;;;;;0.30;96053.00;;;;5105198;27;20417;-81
2023/11/12 06:37:12;;;;;;;11.67;3.63;;;;;0.70;96063.00;;;;5112091;27;20954;-80
2023/11/12 06:40:03;;;;;;;9.27;3.00;;;;;1.00;96067.00;;;;5113091;27;20421;-81
2023/11/12 06:42:52;;;;;;;16.10;4.77;;;;;1.20;96064.00;;;;5109976;27;20452;-82
2023/11/12 06:45:41;;;;;;;28.87;8.20;;;;;0.70;96052.00;;;;5099772;27;20451;-80
2023/11/12 06:48:30;;;;;;;10.87;3.23;;;;;0.40;96058.00;;;;5104933;28;20450;-80
2023/11/12 06:51:22;;;;;;;12.27;3.87;;;;;0.50;96061.00;;;;5099548;27;20461;-80
2023/11/12 06:54:12;;;;;;;11.73;3.53;;;;;0.70;96054.00;;;;5105390;28;20508;-80
2023/11/12 06:57:02;;;;;;;7.83;2.50;;;;;0.30;96061.00;;;;5114324;28;20424;-77
2023/11/12 06:59:51;;;;;;;15.73;4.83;;;;;0.30;96068.00;;;;5106311;28;20435;-82
2023/11/12 07:02:41;;;;;;;18.20;5.30;;;;;0.40;96073.00;;;;5105730;28;20462;-83
2023/11/12 07:05:31;;;;;;;11.17;3.43;;;;;0.80;96076.00;;;;5100729;28;20436;-83
2023/11/12 07:08:20;;;;;;;11.47;3.47;;;;;0.70;96070.00;;;;5096018;28;20429;-83
2023/11/12 07:11:10;;;;;;;10.37;3.03;;;;;0.50;96066.00;;;;5102173;28;21000;-82
2023/11/12 07:14:00;;;;;;;7.03;2.33;;;;;0.70;96072.00;;;;5103891;28;20431;-82
2023/11/12 07:16:49;;;;;;;11.03;3.33;;;;;0.60;96065.00;;;;5094968;28;20467;-82
2023/11/12 07:19:38;;;;;;;10.00;3.13;;;;;0.60;96064.00;;;;5097296;28;20433;-81
2023/11/12 07:22:28;;;;;;;11.33;3.47;;;;;0.30;96062.00;;;;5099714;28;20457;-81
2023/11/12 07:25:17;;;;;;;11.00;3.37;;;;;0.50;96064.00;;;;5097375;28;20425;-82
2023/11/12 07:28:06;;;;;;;8.73;2.83;;;;;0.90;96069.00;;;;5095820;28;20445;-82
2023/11/12 07:30:57;;;;;;;25.50;7.43;;;;;0.50;96063.00;;;;5100183;28;20469;-81
2023/11/12 07:33:46;;;;;;;21.60;6.47;;;;;1.10;96062.00;;;;5108597;27;20432;-79
2023/11/12 07:36:35;;;;;;;19.27;5.67;;;;;1.30;96069.00;;;;5104477;27;20820;-80
2023/11/12 07:39:25;;;;;;;19.50;5.50;;;;;1.90;96072.00;;;;5099546;28;20980;-80
2023/11/12 07:42:14;;;;;;;12.80;3.83;;;;;1.70;96074.00;;;;5104032;27;20460;-81
2023/11/12 07:45:04;;;;;;;24.13;6.83;;;;;1.30;96078.00;;;;5093482;27;20451;-80
2023/11/12 07:47:55;;;;;;;23.13;6.83;;;;;1.80;96082.00;;;;5091548;28;20468;-81
2023/11/12 07:50:44;;;;;;;20.87;5.90;;;;;2.50;96084.00;;;;5097151;28;20449;-81
2023/11/12 07:53:33;;;;;;;11.83;3.47;;;;;2.20;96081.00;;;;5110110;28;20413;-81
2023/11/12 07:56:23;;;;;;;9.30;2.93;;;;;1.80;96087.00;;;;5104456;28;20799;-82
2023/11/12 07:59:14;;;;;;;8.93;2.83;;;;;2.20;96083.00;;;;5103285;28;20428;-80
2023/11/12 08:02:03;;;;;;;9.20;2.83;;;;;2.10;96084.00;;;;5103997;28;20952;-82
2023/11/12 08:04:53;;;;;;;17.73;5.17;;;;;2.20;96089.00;;;;5106660;28;20464;-82
2023/11/12 08:07:42;;;;;;;32.40;9.13;;;;;2.10;96094.00;;;;5100415;27;20926;-81
2023/11/12 08:10:32;;;;;;;12.90;3.93;;;;;2.50;96100.00;;;;5100952;28;20440;-82
2023/11/12 08:13:21;;;;;;;9.63;2.93;;;;;2.90;96110.00;;;;5115011;27;20817;-81
2023/11/12 08:16:10;;;;;;;7.67;2.43;;;;;3.20;96102.00;;;;5097859;27;20472;-81
2023/11/12 08:18:59;;;;;;;12.00;3.57;;;;;3.00;96090.00;;;;5100452;27;20449;-82
2023/11/12 08:21:49;;;;;;;17.20;5.03;;;;;3.00;96101.00;;;;5096335;28;20468;-81
2023/11/12 08:24:38;;;;;;;10.93;3.40;;;;;3.40;96104.00;;;;5103199;28;20957;-81
2023/11/12 08:27:27;;;;;;;14.00;4.07;;;;;3.10;96101.00;;;;5096137;28;20434;-83
2023/11/12 08:30:18;;;;;;;12.20;3.63;;;;;3.10;96105.00;;;;5096614;28;20546;-81
2023/11/12 08:33:07;;;;;;;8.60;2.67;;;;;3.10;96099.00;;;;5103180;28;20422;-82
2023/11/12 08:35:56;;;;;;;17.43;5.30;;;;;3.00;96100.00;;;;5096849;27;20428;-80
2023/11/12 08:38:47;;;;;;;13.23;3.93;;;;;3.20;96095.00;;;;5102365;28;20433;-82
2023/11/12 08:41:37;;;;;;;12.40;3.73;;;;;3.40;96100.00;;;;5109347;27;20854;-80
2023/11/12 08:44:26;;;;;;;15.30;4.60;;;;;3.80;96114.00;;;;5106143;28;20475;-80
2023/11/12 08:47:15;;;;;;;10.33;3.03;;;;;4.30;96120.00;;;;5105063;28;20448;-81
2023/11/12 08:50:04;;;;;;;8.30;2.60;;;;;4.70;96114.00;;;;5103870;28;20433;-81
2023/11/12 08:52:56;;;;;;;15.73;4.70;;;;;4.90;96112.00;;;;5102916;28;20456;-82
2023/11/12 08:55:46;;;;;;;18.33;5.30;;;;;5.00;96108.00;;;;5105049;27;20437;-82
2023/11/12 08:58:36;;;;;;;6.63;2.10;;;;;5.30;96113.00;;;;5105663;28;20823;-83
2023/11/12 09:01:25;;;;;;;10.03;3.00;;;;;5.30;96120.00;;;;5098117;27;20223;-80
2023/11/12 09:04:14;;;;;;;13.00;3.87;;;;;5.40;96122.00;;;;5101108;27;20227;-80
2023/11/12 09:07:03;;;;;;;8.43;2.70;;;;;6.00;96119.00;;;;5104907;27;20270;-81
2023/11/12 09:09:53;;;;;;;15.53;4.57;;;;;6.00;96116.00;;;;5110279;27;20205;-82
2023/11/12 09:12:44;;;;;;;20.73;5.93;;;;;6.40;96123.00;;;;5103664;27;20219;-81
2023/11/12 09:15:33;;;;;;;10.60;3.20;;;;;6.60;96119.00;;;;5105341;27;20282;-79
2023/11/12 09:18:24;;;;;;;9.77;2.97;;;;;6.70;96116.00;;;;5110891;27;20205;-82
2023/11/12 09:21:14;;;;;;;10.23;3.10;;;;;7.00;96118.00;;;;5109890;27;20694;-80
2023/11/12 09:24:03;;;;;;;8.47;2.63;;;;;7.10;96110.00;;;;5107075;27;20223;-82
2023/11/12 09:26:52;;;;;;;15.77;4.60;;;;;7.20;96107.00;;;;5111033;27;20202;-80
2023/11/12 09:29:42;;;;;;;11.63;3.47;;;;;7.10;96122.00;;;;5110946;27;20195;-81
2023/11/12 09:32:31;;;;;;;13.63;4.07;;;;;6.80;96112.00;;;;5109183;27;20218;-80
2023/11/12 09:35:20;;;;;;;11.13;3.37;;;;;6.80;96105.00;;;;5110267;27;20231;-80
2023/11/12 09:38:09;;;;;;;8.83;2.77;;;;;6.70;96106.00;;;;5101700;27;20206;-78
2023/11/12 09:41:01;;;;;;;10.07;3.20;;;;;7.10;96114.00;;;;5107293;27;20230;-82
2023/11/12 09:43:53;;;;;;;14.83;4.60;;;;;7.40;96109.00;;;;5109146;27;20222;-82
2023/11/12 09:46:43;;;;;;;14.27;4.27;;;;;7.50;96124.00;;;;5101189;27;20211;-81
2023/11/12 09:49:33;;;;;;;7.17;2.27;;;;;7.60;96107.00;;;;5102429;28;20398;-82
2023/11/12 09:52:22;;;;;;;9.40;2.93;;;;;7.90;96110.00;;;;5098157;28;20602;-80
2023/11/12 09:55:11;;;;;;;11.37;3.53;;;;;8.40;96112.00;;;;5099097;28;20203;-81
2023/11/12 09:58:01;;;;;;;9.17;2.83;;;;;8.50;96111.00;;;;5103962;28;20778;-82
2023/11/12 10:00:52;;;;;;;17.20;5.20;;;;;8.80;96099.00;;;;5103701;28;20198;-81
2023/11/12 10:03:48;;;;;;;10.13;3.20;;;;;9.20;96113.00;;;;5102445;28;20191;-82
2023/11/12 10:06:38;;;;;;;6.77;2.20;;;;;8.90;96107.00;;;;5106384;28;20206;-82
2023/11/12 10:09:28;;;;;;;12.13;3.67;;;;;9.70;96107.00;;;;5102471;27;20680;-81
2023/11/12 10:12:17;;;;;;;11.67;3.53;;;;;10.60;96111.00;;;;5103599;28;20218;-83
2023/11/12 10:15:07;;;;;;;10.97;3.40;;;;;11.10;96104.00;;;;5102636;27;20191;-81
2023/11/12 10:17:57;;;;;;;22.10;6.40;;;;;11.30;96101.00;;;;5100895;27;20206;-82
2023/11/12 10:20:49;;;;;;;21.33;6.10;;;;;12.80;96104.00;;;;5103172;28;20203;-81
2023/11/12 10:23:38;;;;;;;10.30;3.13;;;;;13.50;96107.00;;;;5101086;28;20573;-81
2023/11/12 10:26:35;;;;;;;11.43;3.60;;;;;13.50;96109.00;;;;5104909;28;20644;-83
2023/11/12 10:29:25;;;;;;;17.40;5.10;;;;;14.30;96112.00;;;;5101561;28;20207;-83
2023/11/12 10:32:26;;;;;;;8.23;2.67;;;;;15.00;96102.00;;;;5106995;28;20416;-82
2023/11/12 10:35:26;;;;;;;11.53;3.50;;;;;15.50;96102.00;;;;5103772;28;20206;-82
2023/11/12 10:38:17;;;;;;;13.77;4.23;;;;;16.00;96091.00;;;;5103335;28;20195;-84
2023/11/12 10:41:07;;;;;;;8.83;2.77;;;;;16.70;96092.00;;;;5090546;28;20231;-85
2023/11/12 10:43:58;;;;;;;27.93;8.13;;;;;16.00;96085.00;;;;5094494;28;20191;-83
2023/11/12 10:46:52;;;;;;;16.53;4.93;;;;;15.60;96077.00;;;;5104816;28;20198;-84
2023/11/12 10:49:42;;;;;;;13.30;4.17;;;;;16.50;96087.00;;;;5102922;28;20198;-85
2023/11/12 10:52:32;;;;;;;14.27;4.23;;;;;15.80;96077.00;;;;5096785;28;20245;-85
2023/11/12 10:55:23;;;;;;;14.40;4.37;;;;;16.60;96078.00;;;;5104992;28;20198;-84
2023/11/12 10:58:13;;;;;;;4.03;1.43;;;;;17.40;96078.00;;;;5104297;28;20202;-84
2023/11/12 11:01:04;;;;;;;12.37;3.80;;;;;17.70;96084.00;;;;5101258;27;20705;-85
2023/11/12 11:03:54;;;;;;;18.50;5.53;;;;;16.50;96077.00;;;;5106787;28;20205;-84
2023/11/12 11:06:43;;;;;;;18.53;5.43;;;;;17.50;96085.00;;;;5124577;27;20224;-84
2023/11/12 11:09:32;;;;;;;9.37;2.97;;;;;17.20;96085.00;;;;5120884;28;20206;-84
2023/11/12 11:12:24;;;;;;;9.93;3.17;;;;;18.10;96084.00;;;;5109340;27;20219;-85
2023/11/12 11:15:45;;;;;;;19.53;5.77;;;;;18.30;96078.00;;;;5120572;27;20203;-85
2023/11/12 11:18:50;;;;;;;5.63;1.90;;;;;18.50;96076.00;;;;5117998;27;20217;-83
2023/11/12 11:21:40;;;;;;;9.90;3.13;;;;;18.20;96074.00;;;;5115049;28;20218;-86
2023/11/12 11:24:45;;;;;;;8.40;2.63;;;;;16.60;96067.00;;;;5112304;28;20230;-86
2023/11/12 11:27:36;;;;;;;20.93;6.10;;;;;15.00;96064.00;;;;5113465;27;20691;-84
2023/11/12 11:30:26;;;;;;;11.70;3.53;;;;;17.10;96066.00;;;;5111809;27;20199;-85
2023/11/12 11:33:15;;;;;;;10.50;3.13;;;;;16.70;96067.00;;;;5120810;27;20216;-84
2023/11/12 11:36:09;;;;;;;12.70;3.83;;;;;17.40;96065.00;;;;5118206;27;20202;-86
2023/11/12 11:39:26;;;;;;;17.77;5.20;;;;;17.50;96066.00;;;;5109305;27;20199;-85
2023/11/12 11:42:19;;;;;;;16.90;15.23;;;;;17.40;96064.00;;;;5117102;28;20318;-85
2023/11/12 11:45:10;;;;;;;14.93;4.20;;;;;18.40;96060.00;;;;5107091;27;20237;-86
2023/11/12 11:48:05;;;;;;;16.00;4.87;;;;;17.40;96046.00;;;;5104791;27;20856;-86
2023/11/12 11:50:55;;;;;;;17.13;4.90;;;;;16.80;96051.00;;;;5115189;27;20202;-85
2023/11/12 11:53:46;;;;;;;13.70;3.83;;;;;18.40;96054.00;;;;5113092;27;20629;-85
2023/11/12 11:56:35;;;;;;;5.93;1.73;;;;;19.20;96048.00;;;;5114512;27;20233;-87
2023/11/12 11:59:24;;;;;;;18.67;5.60;;;;;19.80;96050.00;;;;5116490;27;20203;-86
2023/11/12 12:02:16;;;;;;;10.63;3.10;;;;;20.10;96048.00;;;;5111247;27;20215;-85
2023/11/12 12:05:06;;;;;;;10.97;3.13;;;;;19.50;96047.00;;;;5105613;27;20545;-87
2023/11/12 12:08:00;;;;;;;23.20;6.77;;;;;20.50;96047.00;;;;5107663;27;20194;-86
2023/11/12 12:10:50;;;;;;;22.93;7.00;;;;;19.90;96051.00;;;;5099982;27;20681;-86
2023/11/12 12:13:40;;;;;;;10.60;3.17;;;;;17.70;96048.00;;;;5108286;28;20199;-86
2023/11/12 12:16:29;;;;;;;10.93;3.43;;;;;17.70;96044.00;;;;5107148;28;20625;-86
2023/11/12 12:19:22;;;;;;;13.97;4.20;;;;;18.50;96043.00;;;;5105627;27;20213;-86
2023/11/12 12:22:11;;;;;;;7.40;2.23;;;;;19.20;96033.00;;;;5097895;28;20708;-87
2023/11/12 12:25:00;;;;;;;18.07;5.43;;;;;18.20;96023.00;;;;5102143;28;20201;-84
2023/11/12 12:27:53;;;;;;;13.37;4.17;;;;;19.20;96006.00;;;;5103546;28;20688;-85
2023/11/12 12:30:43;;;;;;;5.63;1.77;;;;;19.50;96003.00;;;;5102909;28;20707;-86
2023/11/12 12:33:32;;;;;;;9.20;2.87;;;;;19.00;96004.00;;;;5100058;28;20207;-85
2023/11/12 12:36:23;;;;;;;7.73;2.43;;;;;19.40;96006.00;;;;5103359;28;20226;-87
2023/11/12 12:39:14;;;;;;;6.10;1.87;;;;;19.70;96009.00;;;;5097490;28;20203;-87
2023/11/12 12:42:04;;;;;;;9.30;2.93;;;;;20.50;95999.00;;;;5105845;28;20698;-85
2023/11/12 12:44:53;;;;;;;11.93;3.63;;;;;21.30;96007.00;;;;5103707;28;20198;-86
2023/11/12 12:47:43;;;;;;;13.83;4.47;;;;;21.10;96009.00;;;;5107284;28;20200;-86
2023/11/12 12:50:33;;;;;;;9.63;2.97;;;;;21.10;96004.00;;;;5106576;28;20203;-87
2023/11/12 12:53:23;;;;;;;10.50;3.23;;;;;21.60;96021.00;;;;5104158;28;20215;-85
2023/11/12 12:56:13;;;;;;;12.27;3.87;;;;;21.50;96030.00;;;;5106852;28;20256;-86
2023/11/12 12:59:02;;;;;;;9.50;3.17;;;;;21.30;96023.00;;;;5108682;28;20214;-87
2023/11/12 13:01:51;;;;;;;17.70;5.93;;;;;22.00;96030.00;;;;5105151;27;20229;-86
2023/11/12 13:04:44;;;;;;;13.97;6.77;;;;;22.70;96027.00;;;;5100077;28;20232;-86
2023/11/12 13:07:35;;;;;;;22.47;14.23;;;;;21.20;96028.00;;;;5099278;28;20200;-87
2023/11/12 13:10:26;;;;;;;54.03;23.43;;;;;22.10;96038.00;;;;5106339;28;20209;-86
2023/11/12 13:13:16;;;;;;;15.60;13.93;;;;;20.50;96026.00;;;;5100075;27;20577;-86
2023/11/12 13:16:09;;;;;;;12.60;8.80;;;;;20.40;96039.00;;;;5100175;27;20595;-85
2023/11/12 13:19:00;;;;;;;16.13;7.90;;;;;20.90;96040.00;;;;5097203;28;20238;-86
2023/11/12 13:21:49;;;;;;;14.47;6.00;;;;;20.70;96066.00;;;;5102049;28;20221;-86
2023/11/12 13:24:39;;;;;;;9.27;3.47;;;;;19.90;96053.00;;;;5103159;28;20197;-85
2023/11/12 13:27:31;;;;;;;16.83;5.13;;;;;17.50;96081.00;;;;5104297;27;20854;-85
2023/11/12 13:30:20;;;;;;;9.40;2.90;;;;;15.20;96066.00;;;;5105603;27;20206;-86
2023/11/12 13:33:09;;;;;;;9.57;3.03;;;;;15.70;96011.00;;;;5102534;27;20214;-85
2023/11/12 13:36:01;;;;;;;14.63;4.57;;;;;17.20;96065.00;;;;5106795;28;20218;-86
2023/11/12 13:38:50;;;;;;;14.67;4.23;;;;;17.10;96073.00;;;;5102113;28;20218;-85
2023/11/12 13:41:40;;;;;;;7.03;2.23;;;;;15.50;96075.00;;;;5108537;28;20255;-83
2023/11/12 13:44:32;;;;;;;8.83;2.93;;;;;14.70;96043.00;;;;5107399;27;20203;-84
2023/11/12 13:47:22;;;;;;;9.13;3.00;;;;;16.30;96040.00;;;;5100796;28;20200;-83
2023/11/12 13:50:13;;;;;;;7.17;2.40;;;;;18.00;96026.00;;;;5103173;28;20199;-84
2023/11/12 13:53:08;;;;;;;6.73;2.20;;;;;19.10;96028.00;;;;5099557;28;20203;-85
2023/11/12 13:55:58;;;;;;;13.67;4.57;;;;;20.10;96023.00;;;;5096556;28;20219;-83
2023/11/12 13:58:50;;;;;;;15.67;5.00;;;;;21.80;96045.00;;;;5093999;28;20293;-85
2023/11/12 14:01:41;;;;;;;9.73;3.00;;;;;22.60;96042.00;;;;5096032;28;20215;-85
2023/11/12 14:04:31;;;;;;;17.07;5.80;;;;;23.20;96053.00;;;;5094506;28;20203;-85
2023/11/12 14:07:22;;;;;;;14.40;5.73;;;;;22.70;96060.00;;;;5107124;28;20691;-85
2023/11/12 14:10:14;;;;;;;13.10;5.70;;;;;22.30;96059.00;;;;5101803;28;20212;-84
2023/11/12 14:13:04;;;;;;;13.87;6.00;;;;;23.30;96061.00;;;;5098036;28;20211;-85